createdAt,value
2019-05-06T00:00:26.739Z,95.00
2019-05-06T00:02:55.607Z,95.00
2019-05-06T00:05:25.556Z,94.80
2019-05-06T00:07:54.971Z,94.80
2019-05-06T00:10:29.278Z,94.60
2019-05-06T00:12:58.861Z,94.50
2019-05-06T00:15:28.243Z,94.60
2019-05-06T00:17:57.392Z,94.40
2019-05-06T00:20:26.683Z,94.60
2019-05-06T00:22:59.778Z,94.70
2019-05-06T00:25:36.737Z,94.50
2019-05-06T00:28:24.452Z,94.10
2019-05-06T00:31:08.617Z,93.90
2019-05-06T00:33:25.734Z,93.70
2019-05-06T00:35:54.917Z,93.30
2019-05-06T00:38:24.654Z,93.40
2019-05-06T00:40:57.315Z,93.20
2019-05-06T00:43:26.252Z,93.60
2019-05-06T00:45:55.122Z,93.50
2019-05-06T00:48:24.485Z,93.50
2019-05-06T00:50:53.732Z,93.70
2019-05-06T00:53:24.918Z,93.50
2019-05-06T00:55:54.044Z,93.30
2019-05-06T00:58:23.886Z,92.90
2019-05-06T01:00:53.964Z,92.90
2019-05-06T01:03:23.829Z,93.10
2019-05-06T01:05:54.212Z,93.40
2019-05-06T01:08:24.123Z,93.60
2019-05-06T01:10:54.468Z,93.80
2019-05-06T01:13:30.399Z,93.80
2019-05-06T01:15:59.527Z,94.00
2019-05-06T01:18:28.626Z,94.00
2019-05-06T01:21:10.073Z,93.90
2019-05-06T01:23:43.752Z,93.90
2019-05-06T01:26:14.989Z,94.10
2019-05-06T01:28:45.336Z,94.00
2019-05-06T01:31:14.944Z,94.10
2019-05-06T01:33:45.289Z,94.00
2019-05-06T01:36:15.157Z,94.00
2019-05-06T01:38:54.685Z,93.80
2019-05-06T01:41:49.113Z,93.80
2019-05-06T01:44:18.489Z,93.60
2019-05-06T01:46:47.831Z,93.80
2019-05-06T01:49:16.851Z,93.50
2019-05-06T01:51:45.903Z,94.00
2019-05-06T01:54:14.867Z,94.00
2019-05-06T01:56:44.390Z,94.40
2019-05-06T01:59:14.157Z,94.70
2019-05-06T02:01:56.427Z,95.00
2019-05-06T02:04:14.155Z,95.20
2019-05-06T02:06:43.864Z,95.70
2019-05-06T02:09:15.889Z,95.50
2019-05-06T02:11:47.756Z,95.40
2019-05-06T02:14:16.970Z,95.40
2019-05-06T02:16:46.526Z,95.40
2019-05-06T02:19:15.617Z,95.40
2019-05-06T02:22:09.801Z,94.80
2019-05-06T02:25:04.600Z,94.70
2019-05-06T02:27:34.184Z,95.10
2019-05-06T02:30:15.298Z,94.60
2019-05-06T02:33:15.155Z,94.30
2019-05-06T02:35:55.135Z,94.30
2019-05-06T02:38:33.279Z,94.20
2019-05-06T02:40:57.142Z,94.50
2019-05-06T02:43:26.188Z,94.20
2019-05-06T02:45:55.493Z,94.40
2019-05-06T02:48:38.334Z,94.20
2019-05-06T02:51:13.134Z,94.00
2019-05-06T02:53:42.897Z,94.10
2019-05-06T02:56:13.377Z,93.90
2019-05-06T02:58:43.747Z,94.40
2019-05-06T03:01:13.588Z,94.50
2019-05-06T03:03:43.561Z,94.60
2019-05-06T03:06:13.321Z,94.60
2019-05-06T03:08:43.380Z,94.70
2019-05-06T03:11:13.847Z,95.30
2019-05-06T03:13:43.978Z,95.40
2019-05-06T03:16:14.248Z,95.70
2019-05-06T03:18:43.706Z,95.40
2019-05-06T03:21:37.548Z,95.40
2019-05-06T03:24:24.733Z,95.40
2019-05-06T03:26:56.933Z,95.50
2019-05-06T03:29:25.564Z,95.70
2019-05-06T03:31:56.505Z,95.70
2019-05-06T03:34:48.941Z,96.10
2019-05-06T03:36:57.137Z,95.40
2019-05-06T03:39:26.334Z,95.80
2019-05-06T03:41:55.353Z,96.10
2019-05-06T03:44:24.524Z,96.30
2019-05-06T03:47:13.960Z,96.20
2019-05-06T03:49:49.775Z,96.90
2019-05-06T03:52:16.653Z,97.00
2019-05-06T03:54:47.265Z,97.00
2019-05-06T03:57:17.960Z,97.30
2019-05-06T03:59:48.822Z,97.10
2019-05-06T04:02:18.428Z,97.10
2019-05-06T04:04:47.437Z,97.20
2019-05-06T04:07:16.569Z,97.30
2019-05-06T04:09:45.779Z,97.30
2019-05-06T04:12:16.266Z,97.60
2019-05-06T04:14:45.644Z,97.60
2019-05-06T04:17:49.224Z,97.70
2019-05-06T04:20:47.075Z,97.50
2019-05-06T04:23:27.607Z,97.70
2019-05-06T04:26:24.755Z,97.70
2019-05-06T04:28:54.138Z,97.10
2019-05-06T04:31:23.617Z,97.00
2019-05-06T04:34:08.409Z,97.00
2019-05-06T04:36:25.107Z,96.70
2019-05-06T04:38:54.434Z,96.60
2019-05-06T04:41:26.778Z,96.60
2019-05-06T04:43:54.382Z,97.00
2019-05-06T04:46:23.797Z,96.80
2019-05-06T04:48:53.887Z,95.70
2019-05-06T04:51:24.697Z,95.40
2019-05-06T04:53:54.579Z,95.40
2019-05-06T04:56:23.964Z,95.70
2019-05-06T04:58:54.006Z,95.50
2019-05-06T05:01:23.633Z,95.60
2019-05-06T05:03:54.094Z,95.40
2019-05-06T05:06:23.490Z,95.20
2019-05-06T05:08:53.980Z,95.50
2019-05-06T05:11:47.566Z,94.70
2019-05-06T05:14:25.609Z,94.70
2019-05-06T05:17:02.214Z,94.40
2019-05-06T05:19:32.792Z,94.00
2019-05-06T05:22:08.166Z,93.90
2019-05-06T05:24:37.989Z,93.50
2019-05-06T05:27:07.473Z,93.70
2019-05-06T05:29:36.721Z,93.00
2019-05-06T05:32:05.872Z,92.90
2019-05-06T05:34:39.927Z,92.80
2019-05-06T05:37:05.794Z,92.50
2019-05-06T05:39:35.308Z,92.10
2019-05-06T05:42:13.769Z,91.20
2019-05-06T05:44:43.740Z,92.20
2019-05-06T05:47:12.963Z,92.00
2019-05-06T05:50:04.513Z,92.10
2019-05-06T05:52:34.241Z,92.20
2019-05-06T05:55:03.896Z,91.80
2019-05-06T05:57:32.979Z,91.00
2019-05-06T06:00:03.944Z,91.20
2019-05-06T06:02:33.419Z,90.30
2019-05-06T06:05:02.861Z,90.40
2019-05-06T06:07:32.922Z,90.00
2019-05-06T06:10:12.890Z,90.00
2019-05-06T06:12:42.907Z,90.20
2019-05-06T06:15:42.342Z,89.50
2019-05-06T06:18:36.991Z,90.00
2019-05-06T06:21:37.259Z,88.50
2019-05-06T06:24:13.106Z,87.50
2019-05-06T06:26:43.045Z,87.40
2019-05-06T06:29:12.654Z,86.20
2019-05-06T06:32:09.836Z,86.90
2019-05-06T06:34:47.940Z,86.50
2019-05-06T06:37:42.726Z,85.50
2019-05-06T06:40:13.471Z,84.70
2019-05-06T06:42:42.835Z,83.80
2019-05-06T06:45:12.349Z,80.90
2019-05-06T06:47:43.343Z,79.90
2019-05-06T06:50:12.620Z,77.20
2019-05-06T06:52:43.043Z,76.90
2019-05-06T06:55:13.065Z,74.20
2019-05-06T06:58:02.788Z,74.70
2019-05-06T07:00:44.614Z,76.00
2019-05-06T07:03:33.700Z,70.50
2019-05-06T07:06:13.263Z,72.20
2019-05-06T07:08:42.668Z,71.70
2019-05-06T07:11:13.043Z,70.00
2019-05-06T07:16:26.255Z,71.00
2019-05-06T07:18:55.159Z,70.10
2019-05-06T07:21:46.994Z,71.00
2019-05-06T07:24:16.519Z,72.70
2019-05-06T07:26:56.704Z,70.60
2019-05-06T07:29:26.939Z,70.30
2019-05-06T07:31:56.178Z,68.70
2019-05-06T07:34:25.302Z,72.40
2019-05-06T07:36:54.175Z,74.30
2019-05-06T07:39:24.006Z,75.50
2019-05-06T07:41:58.025Z,74.50
2019-05-06T07:44:42.703Z,74.30
2019-05-06T07:47:23.784Z,74.90
2019-05-06T07:49:53.094Z,73.30
2019-05-06T07:52:23.041Z,74.20
2019-05-06T07:54:53.455Z,80.00
2019-05-06T07:57:22.986Z,79.00
2019-05-06T07:59:52.631Z,77.30
2019-05-06T08:02:22.903Z,76.90
2019-05-06T08:04:53.129Z,78.50
2019-05-06T08:07:22.512Z,76.50
2019-05-06T08:09:53.004Z,74.60
2019-05-06T08:12:22.456Z,73.30
2019-05-06T08:14:52.487Z,75.00
2019-05-06T08:17:34.660Z,73.80
2019-05-06T08:23:02.097Z,71.80
2019-05-06T08:25:42.504Z,72.90
2019-05-06T08:28:13.234Z,70.50
2019-05-06T08:30:43.107Z,70.60
2019-05-06T08:33:12.976Z,70.90
2019-05-06T08:35:42.691Z,69.40
2019-05-06T08:38:12.312Z,71.90
2019-05-06T08:40:43.076Z,71.80
2019-05-06T08:43:13.148Z,73.60
2019-05-06T08:45:42.452Z,74.30
2019-05-06T08:48:13.029Z,69.50
2019-05-06T08:51:02.772Z,67.00
2019-05-06T08:54:06.496Z,67.00
2019-05-06T08:56:35.449Z,66.00
2019-05-06T08:59:04.888Z,64.90
2019-05-06T09:01:50.588Z,59.90
2019-05-06T09:04:19.436Z,60.50
2019-05-06T09:06:48.403Z,53.90
2019-05-06T09:09:19.635Z,53.10
2019-05-06T09:11:48.884Z,56.40
2019-05-06T09:14:18.316Z,54.80
2019-05-06T09:16:50.489Z,57.10
2019-05-06T09:19:20.195Z,55.80
2019-05-06T09:21:49.030Z,58.20
2019-05-06T09:24:18.399Z,54.00
2019-05-06T09:26:55.894Z,52.70
2019-05-06T09:29:32.593Z,52.60
2019-05-06T09:32:06.727Z,48.50
2019-05-06T09:34:43.136Z,49.80
2019-05-06T09:37:14.113Z,49.30
2019-05-06T09:39:44.640Z,49.00
2019-05-06T09:42:14.010Z,48.40
2019-05-06T09:44:44.318Z,48.70
2019-05-06T09:47:22.972Z,48.10
2019-05-06T09:49:53.050Z,45.20
2019-05-06T09:52:23.110Z,44.50
2019-05-06T09:54:58.592Z,45.30
2019-05-06T09:57:32.927Z,44.00
2019-05-06T10:00:04.598Z,43.80
2019-05-06T10:02:32.822Z,43.00
2019-05-06T10:05:03.575Z,44.30
2019-05-06T10:07:33.906Z,42.80
2019-05-06T10:10:03.560Z,41.70
2019-05-06T10:12:32.962Z,39.30
2019-05-06T10:15:03.273Z,38.80
2019-05-06T10:17:32.727Z,38.60
2019-05-06T10:20:02.869Z,38.90
2019-05-06T10:22:32.577Z,40.70
2019-05-06T10:25:03.753Z,39.30
2019-05-06T10:27:33.167Z,38.20
2019-05-06T10:30:05.935Z,37.50
2019-05-06T10:32:45.091Z,38.00
2019-05-06T10:35:14.402Z,43.10
2019-05-06T10:38:13.014Z,45.50
2019-05-06T10:41:00.094Z,48.10
2019-05-06T10:43:28.352Z,53.50
2019-05-06T10:46:04.082Z,58.20
2019-05-06T10:48:32.713Z,60.00
2019-05-06T10:51:13.076Z,55.90
2019-05-06T10:53:42.460Z,61.10
2019-05-06T10:56:32.270Z,50.70
2019-05-06T10:59:02.420Z,49.00
2019-05-06T11:01:35.513Z,46.20
2019-05-06T11:04:07.403Z,45.10
2019-05-06T11:06:36.323Z,44.40
2019-05-06T11:09:08.371Z,41.90
2019-05-06T11:11:38.631Z,43.00
2019-05-06T11:14:08.023Z,46.00
2019-05-06T11:16:37.340Z,47.10
2019-05-06T11:19:06.548Z,46.90
2019-05-06T11:21:35.563Z,45.80
2019-05-06T11:24:06.277Z,43.90
2019-05-06T11:26:35.357Z,42.30
2019-05-06T11:29:12.343Z,41.00
2019-05-06T11:31:49.632Z,38.30
2019-05-06T11:34:36.715Z,34.10
2019-05-06T11:37:24.743Z,37.10
2019-05-06T11:39:53.903Z,33.50
2019-05-06T11:42:29.037Z,32.40
2019-05-06T11:44:53.565Z,32.30
2019-05-06T11:47:23.279Z,32.80
2019-05-06T11:49:56.355Z,34.30
2019-05-06T11:52:25.756Z,32.50
2019-05-06T11:54:54.771Z,32.20
2019-05-06T11:57:23.698Z,32.70
2019-05-06T11:59:52.971Z,31.20
2019-05-06T12:02:23.226Z,30.30
2019-05-06T12:04:52.797Z,30.80
2019-05-06T12:07:24.481Z,30.00
2019-05-06T12:09:53.939Z,30.70
2019-05-06T12:12:24.806Z,30.90
2019-05-06T12:14:53.826Z,29.90
2019-05-06T12:17:23.006Z,30.40
2019-05-06T12:20:13.064Z,30.60
2019-05-06T12:22:45.543Z,31.00
2019-05-06T12:25:15.725Z,29.80
2019-05-06T12:27:45.052Z,30.50
2019-05-06T12:30:22.891Z,29.60
2019-05-06T12:33:23.036Z,30.00
2019-05-06T12:35:52.322Z,30.00
2019-05-06T12:39:00.101Z,28.10
2019-05-06T12:41:29.242Z,29.40
2019-05-06T12:43:58.766Z,28.40
2019-05-06T12:46:33.833Z,27.60
2019-05-06T12:49:03.328Z,26.40
2019-05-06T12:51:32.586Z,25.90
2019-05-06T12:54:03.535Z,26.40
2019-05-06T12:56:33.633Z,25.90
2019-05-06T12:59:02.752Z,25.20
2019-05-06T13:01:33.949Z,25.20
2019-05-06T13:04:04.655Z,25.30
2019-05-06T13:06:37.260Z,25.70
2019-05-06T13:09:07.351Z,26.00
2019-05-06T13:11:37.042Z,25.90
2019-05-06T13:14:06.796Z,26.00
2019-05-06T13:16:35.939Z,26.40
2019-05-06T13:19:05.154Z,26.60
2019-05-06T13:21:35.798Z,27.20
2019-05-06T13:24:06.341Z,27.60
2019-05-06T13:26:36.949Z,27.80
2019-05-06T13:29:13.021Z,27.40
2019-05-06T13:31:43.675Z,27.10
2019-05-06T13:34:20.434Z,27.80
2019-05-06T13:36:53.172Z,27.90
2019-05-06T13:39:24.004Z,27.40
2019-05-06T13:41:53.074Z,27.20
2019-05-06T13:44:22.991Z,27.40
2019-05-06T13:46:55.991Z,27.40
2019-05-06T13:49:31.225Z,26.90
2019-05-06T13:52:04.441Z,26.60
2019-05-06T13:54:34.252Z,26.50
2019-05-06T13:57:03.646Z,26.40
2019-05-06T13:59:35.131Z,26.20
2019-05-06T14:02:21.523Z,25.90
2019-05-06T14:04:52.745Z,26.70
2019-05-06T14:07:24.390Z,26.10
2019-05-06T14:09:53.645Z,26.20
2019-05-06T14:12:23.024Z,26.20
2019-05-06T14:14:52.830Z,26.40
2019-05-06T14:17:22.594Z,26.20
2019-05-06T14:19:53.383Z,26.60
2019-05-06T14:22:23.362Z,26.50
2019-05-06T14:25:02.647Z,26.40
2019-05-06T14:27:32.864Z,26.10
2019-05-06T14:30:11.704Z,25.00
2019-05-06T14:32:43.179Z,26.00
2019-05-06T14:35:12.800Z,26.20
2019-05-06T14:37:42.229Z,25.30
2019-05-06T14:40:14.176Z,25.70
2019-05-06T14:42:43.299Z,25.30
2019-05-06T14:45:14.779Z,25.80
2019-05-06T14:47:44.041Z,26.20
2019-05-06T14:50:15.043Z,25.10
2019-05-06T14:52:44.344Z,25.10
2019-05-06T14:55:22.578Z,24.90
2019-05-06T14:57:53.466Z,23.70
2019-05-06T15:00:23.308Z,23.90
2019-05-06T15:02:53.430Z,24.10
2019-05-06T15:05:23.089Z,24.20
2019-05-06T15:07:52.894Z,23.90
2019-05-06T15:10:26.179Z,24.10
2019-05-06T15:12:53.721Z,23.70
2019-05-06T15:15:23.034Z,23.80
2019-05-06T15:17:53.309Z,24.90
2019-05-06T15:20:22.746Z,26.00
2019-05-06T15:22:52.975Z,25.70
2019-05-06T15:25:22.431Z,25.70
2019-05-06T15:27:53.206Z,26.10
2019-05-06T15:30:33.496Z,27.10
2019-05-06T15:33:02.510Z,26.30
2019-05-06T15:35:41.856Z,26.10
2019-05-06T15:38:16.501Z,26.00
2019-05-06T15:40:46.006Z,25.90
2019-05-06T15:43:15.014Z,26.10
2019-05-06T15:45:44.057Z,26.90
2019-05-06T15:48:13.696Z,26.80
2019-05-06T15:50:45.643Z,27.10
2019-05-06T15:53:13.689Z,27.70
2019-05-06T15:55:43.667Z,27.90
2019-05-06T15:58:14.058Z,29.70
2019-05-06T16:00:43.169Z,59.50
2019-05-06T16:03:13.182Z,82.30
2019-05-06T16:05:43.648Z,89.50
2019-05-06T16:08:13.460Z,93.50
2019-05-06T16:10:51.935Z,96.20
2019-05-06T16:13:13.432Z,97.80
2019-05-06T16:15:42.761Z,98.80
2019-05-06T16:18:12.984Z,99.50
2019-05-06T16:20:42.655Z,99.80
2019-05-06T16:23:30.022Z,99.90
2019-05-06T16:25:59.179Z,99.90
2019-05-06T16:28:28.180Z,99.80
2019-05-06T16:30:57.237Z,99.90
2019-05-06T16:33:26.463Z,99.50
2019-05-06T16:35:55.520Z,99.90
2019-05-06T16:38:24.850Z,99.50
2019-05-06T16:41:09.106Z,99.90
2019-05-06T16:43:25.186Z,99.80
2019-05-06T16:45:54.314Z,99.90
2019-05-06T16:48:23.512Z,99.90
2019-05-06T16:50:53.050Z,99.90
2019-05-06T16:53:22.949Z,99.90
2019-05-06T16:56:09.676Z,99.90
2019-05-06T16:58:44.057Z,99.90
2019-05-06T17:01:15.138Z,99.90
2019-05-06T17:03:52.730Z,99.90
2019-05-06T17:06:24.426Z,99.90
2019-05-06T17:08:53.528Z,99.90
2019-05-06T17:11:30.589Z,99.90
2019-05-06T17:13:54.193Z,99.90
2019-05-06T17:16:23.208Z,99.90
2019-05-06T17:18:56.424Z,99.90
2019-05-06T17:21:23.360Z,99.90
2019-05-06T17:23:52.471Z,99.90
2019-05-06T17:26:22.464Z,99.90
2019-05-06T17:29:02.720Z,99.90
2019-05-06T17:31:56.866Z,99.90
2019-05-06T17:34:32.186Z,99.90
2019-05-06T17:37:07.725Z,99.90
2019-05-06T17:39:36.727Z,99.90
2019-05-06T17:42:05.898Z,99.90
2019-05-06T17:44:34.994Z,99.20
2019-05-06T17:47:14.611Z,99.30
2019-05-06T17:49:44.241Z,98.20
2019-05-06T17:52:19.310Z,98.90
2019-05-06T17:54:48.548Z,97.90
2019-05-06T17:57:17.573Z,98.40
2019-05-06T17:59:46.724Z,99.80
2019-05-06T18:02:19.321Z,99.90
2019-05-06T18:04:48.803Z,98.20
2019-05-06T18:07:17.725Z,97.90
2019-05-06T18:09:46.844Z,97.40
2019-05-06T18:12:15.978Z,97.70
2019-05-06T18:14:45.390Z,97.60
2019-05-06T18:17:14.400Z,99.10
2019-05-06T18:19:43.492Z,99.90
2019-05-06T18:22:13.138Z,99.60
2019-05-06T18:24:42.231Z,99.20
2019-05-06T18:27:13.157Z,99.40
2019-05-06T18:29:42.735Z,99.00
2019-05-06T18:32:12.642Z,98.10
2019-05-06T18:34:42.137Z,99.20
2019-05-06T18:37:30.169Z,97.50
2019-05-06T18:39:59.276Z,97.10
2019-05-06T18:42:28.186Z,96.50
2019-05-06T18:44:57.525Z,95.80
2019-05-06T18:47:26.361Z,96.10
2019-05-06T18:49:56.664Z,96.20
2019-05-06T18:52:25.627Z,91.70
2019-05-06T18:54:54.529Z,91.90
2019-05-06T18:57:23.661Z,93.00
2019-05-06T18:59:53.274Z,92.70
2019-05-06T19:02:23.009Z,92.10
2019-05-06T19:04:57.518Z,91.70
2019-05-06T19:07:26.583Z,92.20
2019-05-06T19:10:13.203Z,92.00
2019-05-06T19:12:42.529Z,92.50
2019-05-06T19:15:12.628Z,93.70
2019-05-06T19:17:44.155Z,93.00
2019-05-06T19:20:14.093Z,93.90
2019-05-06T19:22:43.600Z,92.80
2019-05-06T19:25:14.623Z,93.70
2019-05-06T19:27:43.711Z,94.40
2019-05-06T19:30:13.383Z,94.20
2019-05-06T19:32:43.410Z,94.90
2019-05-06T19:35:13.952Z,94.70
2019-05-06T19:37:42.874Z,94.80
2019-05-06T19:40:12.315Z,95.00
2019-05-06T19:42:47.127Z,95.20
2019-05-06T19:45:16.563Z,96.30
2019-05-06T19:47:46.032Z,96.10
2019-05-06T19:50:15.569Z,96.40
2019-05-06T19:52:44.637Z,96.40
2019-05-06T19:55:13.912Z,96.80
2019-05-06T19:57:43.175Z,97.30
2019-05-06T20:00:12.975Z,97.30
2019-05-06T20:02:42.990Z,97.40
2019-05-06T20:05:23.723Z,97.40
2019-05-06T20:08:12.524Z,97.30
2019-05-06T20:10:52.858Z,97.50
2019-05-06T20:13:23.163Z,97.70
2019-05-06T20:15:52.360Z,97.70
2019-05-06T20:18:21.389Z,98.30
2019-05-06T20:20:52.663Z,98.20
2019-05-06T20:23:23.058Z,98.40
2019-05-06T20:25:52.734Z,98.60
2019-05-06T20:28:22.764Z,98.60
2019-05-06T20:30:52.869Z,98.90
2019-05-06T20:33:22.187Z,99.10
2019-05-06T20:35:52.615Z,98.80
2019-05-06T20:38:23.210Z,99.10
2019-05-06T20:40:52.486Z,98.80
2019-05-06T20:43:23.914Z,99.10
2019-05-06T20:45:52.318Z,99.10
2019-05-06T20:48:23.558Z,99.60
2019-05-06T20:50:52.989Z,99.20
2019-05-06T20:53:23.191Z,99.80
2019-05-06T20:55:53.194Z,99.30
2019-05-06T20:58:23.011Z,99.50
2019-05-06T21:00:52.283Z,99.60
2019-05-06T21:03:22.168Z,99.60
2019-05-06T21:05:52.056Z,99.60
2019-05-06T21:08:22.072Z,99.60
2019-05-06T21:10:52.906Z,99.80
2019-05-06T21:13:31.475Z,99.90
2019-05-06T21:15:53.151Z,99.90
2019-05-06T21:18:22.902Z,99.90
2019-05-06T21:20:52.097Z,99.90
2019-05-06T21:23:22.732Z,99.90
2019-05-06T21:25:52.431Z,99.90
2019-05-06T21:28:23.603Z,99.90
2019-05-06T21:30:52.312Z,99.80
2019-05-06T21:33:22.132Z,99.80
2019-05-06T21:35:52.279Z,99.90
2019-05-06T21:38:22.728Z,99.80
2019-05-06T21:40:52.690Z,99.60
2019-05-06T21:43:22.714Z,99.80
2019-05-06T21:45:53.938Z,99.70
2019-05-06T21:48:22.412Z,99.70
2019-05-06T21:50:52.231Z,99.80
2019-05-06T21:53:23.045Z,99.50
2019-05-06T21:55:52.490Z,99.50
2019-05-06T21:58:23.145Z,99.50
2019-05-06T22:01:04.896Z,99.50
2019-05-06T22:03:34.067Z,99.20
2019-05-06T22:06:03.092Z,99.30
2019-05-06T22:08:32.814Z,99.50
2019-05-06T22:11:02.961Z,99.50
2019-05-06T22:13:33.503Z,99.50
2019-05-06T22:16:04.746Z,99.50
2019-05-06T22:18:33.160Z,99.50
2019-05-06T22:21:33.200Z,99.30
2019-05-06T22:24:04.725Z,99.60
2019-05-06T22:26:34.037Z,99.40
2019-05-06T22:29:02.913Z,99.50
2019-05-06T22:31:33.088Z,99.80
2019-05-06T22:34:02.198Z,99.90
2019-05-06T22:36:32.302Z,99.90
2019-05-06T22:39:02.705Z,99.40
2019-05-06T22:41:32.716Z,99.40
2019-05-06T22:44:13.010Z,99.30
2019-05-06T22:46:32.997Z,98.90
2019-05-06T22:49:02.559Z,98.90
2019-05-06T22:51:32.432Z,98.90
2019-05-06T22:54:02.755Z,99.10
2019-05-06T22:56:32.514Z,98.60
2019-05-06T22:59:03.341Z,98.40
2019-05-06T23:01:54.298Z,98.50
2019-05-06T23:04:24.509Z,98.50
2019-05-06T23:06:54.383Z,98.60
2019-05-06T23:09:25.014Z,98.80
2019-05-06T23:11:54.005Z,99.00
2019-05-06T23:14:31.095Z,99.10
2019-05-06T23:16:53.507Z,98.60
2019-05-06T23:19:24.441Z,99.00
2019-05-06T23:21:53.404Z,99.50
2019-05-06T23:24:23.104Z,99.50
2019-05-06T23:26:52.722Z,99.50
2019-05-06T23:29:23.027Z,99.50
2019-05-06T23:31:52.485Z,99.40
2019-05-06T23:34:23.145Z,99.50
2019-05-06T23:37:28.716Z,99.90
2019-05-06T23:40:42.818Z,99.90
2019-05-06T23:43:47.798Z,99.90
2019-05-06T23:46:53.156Z,99.60
2019-05-06T23:49:58.808Z,99.70
2019-05-06T23:53:03.692Z,99.90
2019-05-06T23:56:08.762Z,99.90
2019-05-06T23:58:38.482Z,99.90
